sensor_id;sensor_type;location;lat;lon;timestamp;P1;durP1;ratioP1;P2;durP2;ratioP2
66175;SDS011;52977;44.816;20.538;2022-09-03T00:01:20;12.18;;;5.60;;
66175;SDS011;52977;44.816;20.538;2022-09-03T00:03:56;8.45;;;5.18;;
66175;SDS011;52977;44.816;20.538;2022-09-03T00:06:35;10.82;;;5.57;;
66175;SDS011;52977;44.816;20.538;2022-09-03T00:09:13;11.63;;;5.57;;
66175;SDS011;52977;44.816;20.538;2022-09-03T00:11:47;11.25;;;6.65;;
66175;SDS011;52977;44.816;20.538;2022-09-03T00:16:54;10.93;;;5.82;;
66175;SDS011;52977;44.816;20.538;2022-09-03T00:19:24;9.65;;;5.50;;
66175;SDS011;52977;44.816;20.538;2022-09-03T00:21:56;12.60;;;6.07;;
66175;SDS011;52977;44.816;20.538;2022-09-03T00:24:41;11.07;;;6.10;;
66175;SDS011;52977;44.816;20.538;2022-09-03T00:27:17;10.88;;;5.55;;
66175;SDS011;52977;44.816;20.538;2022-09-03T00:32:39;9.80;;;5.63;;
66175;SDS011;52977;44.816;20.538;2022-09-03T00:35:28;10.40;;;5.55;;
66175;SDS011;52977;44.816;20.538;2022-09-03T00:37:58;10.35;;;6.50;;
66175;SDS011;52977;44.816;20.538;2022-09-03T00:40:34;9.45;;;5.75;;
66175;SDS011;52977;44.816;20.538;2022-09-03T00:51:22;11.32;;;6.00;;
66175;SDS011;52977;44.816;20.538;2022-09-03T00:56:43;11.68;;;5.85;;
66175;SDS011;52977;44.816;20.538;2022-09-03T00:59:30;8.15;;;5.07;;
66175;SDS011;52977;44.816;20.538;2022-09-03T01:02:39;10.32;;;6.03;;
66175;SDS011;52977;44.816;20.538;2022-09-03T01:07:58;9.45;;;5.28;;
66175;SDS011;52977;44.816;20.538;2022-09-03T01:11:01;15.20;;;6.38;;
66175;SDS011;52977;44.816;20.538;2022-09-03T01:13:42;13.43;;;6.40;;
66175;SDS011;52977;44.816;20.538;2022-09-03T01:16:43;9.40;;;5.40;;
66175;SDS011;52977;44.816;20.538;2022-09-03T01:19:33;12.27;;;6.47;;
66175;SDS011;52977;44.816;20.538;2022-09-03T01:30:22;10.40;;;5.10;;
66175;SDS011;52977;44.816;20.538;2022-09-03T01:38:34;11.43;;;6.15;;
66175;SDS011;52977;44.816;20.538;2022-09-03T01:46:49;10.18;;;5.53;;
66175;SDS011;52977;44.816;20.538;2022-09-03T01:49:33;13.93;;;5.93;;
66175;SDS011;52977;44.816;20.538;2022-09-03T01:57:32;12.50;;;6.47;;
66175;SDS011;52977;44.816;20.538;2022-09-03T02:02:38;11.15;;;5.20;;
66175;SDS011;52977;44.816;20.538;2022-09-03T02:05:06;8.35;;;4.93;;
66175;SDS011;52977;44.816;20.538;2022-09-03T02:07:39;10.65;;;6.03;;
66175;SDS011;52977;44.816;20.538;2022-09-03T02:10:11;10.52;;;5.72;;
66175;SDS011;52977;44.816;20.538;2022-09-03T02:12:39;9.25;;;5.57;;
66175;SDS011;52977;44.816;20.538;2022-09-03T02:15:13;9.07;;;5.22;;
66175;SDS011;52977;44.816;20.538;2022-09-03T02:17:42;10.05;;;6.10;;
66175;SDS011;52977;44.816;20.538;2022-09-03T02:20:10;9.55;;;5.78;;
66175;SDS011;52977;44.816;20.538;2022-09-03T02:22:43;10.45;;;5.53;;
66175;SDS011;52977;44.816;20.538;2022-09-03T02:25:09;10.50;;;5.47;;
66175;SDS011;52977;44.816;20.538;2022-09-03T02:27:36;9.57;;;5.57;;
66175;SDS011;52977;44.816;20.538;2022-09-03T02:30:02;13.05;;;5.53;;
66175;SDS011;52977;44.816;20.538;2022-09-03T02:32:29;11.05;;;5.53;;
66175;SDS011;52977;44.816;20.538;2022-09-03T02:34:56;10.82;;;5.65;;
66175;SDS011;52977;44.816;20.538;2022-09-03T02:37:22;11.55;;;5.65;;
66175;SDS011;52977;44.816;20.538;2022-09-03T02:39:48;8.77;;;5.35;;
66175;SDS011;52977;44.816;20.538;2022-09-03T02:42:14;13.00;;;6.07;;
66175;SDS011;52977;44.816;20.538;2022-09-03T02:44:42;9.20;;;5.50;;
66175;SDS011;52977;44.816;20.538;2022-09-03T02:47:12;9.05;;;5.75;;
66175;SDS011;52977;44.816;20.538;2022-09-03T02:49:39;9.57;;;5.38;;
66175;SDS011;52977;44.816;20.538;2022-09-03T02:52:06;11.25;;;5.97;;
66175;SDS011;52977;44.816;20.538;2022-09-03T02:54:34;10.90;;;5.55;;
66175;SDS011;52977;44.816;20.538;2022-09-03T02:57:11;11.73;;;6.00;;
66175;SDS011;52977;44.816;20.538;2022-09-03T02:59:38;9.23;;;5.50;;
66175;SDS011;52977;44.816;20.538;2022-09-03T03:02:06;10.70;;;5.88;;
66175;SDS011;52977;44.816;20.538;2022-09-03T03:04:32;9.70;;;5.35;;
66175;SDS011;52977;44.816;20.538;2022-09-03T03:06:58;11.27;;;6.30;;
66175;SDS011;52977;44.816;20.538;2022-09-03T03:09:23;8.98;;;5.15;;
66175;SDS011;52977;44.816;20.538;2022-09-03T03:11:49;9.52;;;5.82;;
66175;SDS011;52977;44.816;20.538;2022-09-03T03:14:16;10.13;;;6.07;;
66175;SDS011;52977;44.816;20.538;2022-09-03T03:16:42;9.75;;;5.47;;
66175;SDS011;52977;44.816;20.538;2022-09-03T03:19:08;10.35;;;5.47;;
66175;SDS011;52977;44.816;20.538;2022-09-03T03:21:34;12.50;;;6.20;;
66175;SDS011;52977;44.816;20.538;2022-09-03T03:24:00;10.25;;;6.40;;
66175;SDS011;52977;44.816;20.538;2022-09-03T03:26:27;9.35;;;5.63;;
66175;SDS011;52977;44.816;20.538;2022-09-03T03:28:57;10.07;;;5.93;;
66175;SDS011;52977;44.816;20.538;2022-09-03T03:31:24;12.20;;;6.47;;
66175;SDS011;52977;44.816;20.538;2022-09-03T03:33:52;11.65;;;6.20;;
66175;SDS011;52977;44.816;20.538;2022-09-03T03:36:19;13.18;;;6.47;;
66175;SDS011;52977;44.816;20.538;2022-09-03T03:38:46;9.85;;;5.50;;
66175;SDS011;52977;44.816;20.538;2022-09-03T03:41:16;9.35;;;5.88;;
66175;SDS011;52977;44.816;20.538;2022-09-03T03:43:44;9.75;;;6.22;;
66175;SDS011;52977;44.816;20.538;2022-09-03T03:46:10;11.32;;;6.03;;
66175;SDS011;52977;44.816;20.538;2022-09-03T03:48:37;9.70;;;5.63;;
66175;SDS011;52977;44.816;20.538;2022-09-03T03:51:04;9.70;;;6.10;;
66175;SDS011;52977;44.816;20.538;2022-09-03T03:53:32;13.00;;;6.47;;
66175;SDS011;52977;44.816;20.538;2022-09-03T03:56:00;12.02;;;6.10;;
66175;SDS011;52977;44.816;20.538;2022-09-03T03:58:28;12.65;;;6.45;;
66175;SDS011;52977;44.816;20.538;2022-09-03T04:01:02;11.38;;;6.22;;
66175;SDS011;52977;44.816;20.538;2022-09-03T04:03:32;12.00;;;5.72;;
66175;SDS011;52977;44.816;20.538;2022-09-03T04:05:58;10.82;;;6.10;;
66175;SDS011;52977;44.816;20.538;2022-09-03T04:08:26;9.10;;;5.80;;
66175;SDS011;52977;44.816;20.538;2022-09-03T04:10:52;11.93;;;6.60;;
66175;SDS011;52977;44.816;20.538;2022-09-03T04:13:18;10.93;;;6.00;;
66175;SDS011;52977;44.816;20.538;2022-09-03T04:15:44;10.90;;;6.65;;
66175;SDS011;52977;44.816;20.538;2022-09-03T04:18:10;10.27;;;6.13;;
66175;SDS011;52977;44.816;20.538;2022-09-03T04:20:36;9.98;;;6.35;;
66175;SDS011;52977;44.816;20.538;2022-09-03T04:23:02;11.15;;;5.75;;
66175;SDS011;52977;44.816;20.538;2022-09-03T04:25:29;13.57;;;7.00;;
66175;SDS011;52977;44.816;20.538;2022-09-03T04:27:55;8.95;;;5.97;;
66175;SDS011;52977;44.816;20.538;2022-09-03T04:30:20;10.30;;;5.45;;
66175;SDS011;52977;44.816;20.538;2022-09-03T04:32:49;10.00;;;6.30;;
66175;SDS011;52977;44.816;20.538;2022-09-03T04:35:19;10.48;;;6.00;;
66175;SDS011;52977;44.816;20.538;2022-09-03T04:37:45;13.05;;;7.03;;
66175;SDS011;52977;44.816;20.538;2022-09-03T04:40:11;9.45;;;5.97;;
66175;SDS011;52977;44.816;20.538;2022-09-03T04:42:37;9.23;;;5.72;;
66175;SDS011;52977;44.816;20.538;2022-09-03T04:45:02;10.30;;;6.45;;
66175;SDS011;52977;44.816;20.538;2022-09-03T04:47:28;11.68;;;5.97;;
66175;SDS011;52977;44.816;20.538;2022-09-03T04:49:54;14.10;;;6.25;;
66175;SDS011;52977;44.816;20.538;2022-09-03T04:52:20;11.20;;;6.07;;
66175;SDS011;52977;44.816;20.538;2022-09-03T04:54:45;10.48;;;7.18;;
66175;SDS011;52977;44.816;20.538;2022-09-03T04:57:11;11.57;;;5.95;;
66175;SDS011;52977;44.816;20.538;2022-09-03T04:59:37;12.77;;;6.68;;
66175;SDS011;52977;44.816;20.538;2022-09-03T05:02:05;9.90;;;6.35;;
66175;SDS011;52977;44.816;20.538;2022-09-03T05:04:32;11.50;;;6.80;;
66175;SDS011;52977;44.816;20.538;2022-09-03T05:06:58;10.35;;;6.35;;
66175;SDS011;52977;44.816;20.538;2022-09-03T05:09:23;10.70;;;7.07;;
66175;SDS011;52977;44.816;20.538;2022-09-03T05:11:49;11.55;;;6.30;;
66175;SDS011;52977;44.816;20.538;2022-09-03T05:14:15;10.27;;;6.15;;
66175;SDS011;52977;44.816;20.538;2022-09-03T05:16:40;13.18;;;6.30;;
66175;SDS011;52977;44.816;20.538;2022-09-03T05:19:06;10.60;;;6.03;;
66175;SDS011;52977;44.816;20.538;2022-09-03T05:21:32;11.10;;;6.60;;
66175;SDS011;52977;44.816;20.538;2022-09-03T05:24:02;11.60;;;6.55;;
66175;SDS011;52977;44.816;20.538;2022-09-03T05:26:29;11.65;;;6.35;;
66175;SDS011;52977;44.816;20.538;2022-09-03T05:28:57;12.30;;;6.72;;
66175;SDS011;52977;44.816;20.538;2022-09-03T05:31:25;12.07;;;6.88;;
66175;SDS011;52977;44.816;20.538;2022-09-03T05:33:53;11.02;;;6.53;;
66175;SDS011;52977;44.816;20.538;2022-09-03T05:36:25;11.02;;;6.72;;
66175;SDS011;52977;44.816;20.538;2022-09-03T05:38:52;11.70;;;6.65;;
66175;SDS011;52977;44.816;20.538;2022-09-03T05:41:19;10.18;;;6.28;;
66175;SDS011;52977;44.816;20.538;2022-09-03T05:43:46;11.18;;;6.38;;
66175;SDS011;52977;44.816;20.538;2022-09-03T05:46:17;10.43;;;6.13;;
66175;SDS011;52977;44.816;20.538;2022-09-03T05:48:43;14.45;;;6.88;;
66175;SDS011;52977;44.816;20.538;2022-09-03T05:51:12;10.48;;;6.00;;
66175;SDS011;52977;44.816;20.538;2022-09-03T05:53:41;10.73;;;6.03;;
66175;SDS011;52977;44.816;20.538;2022-09-03T05:56:08;11.43;;;5.93;;
66175;SDS011;52977;44.816;20.538;2022-09-03T05:58:37;13.38;;;6.22;;
66175;SDS011;52977;44.816;20.538;2022-09-03T06:04:00;13.75;;;6.40;;
66175;SDS011;52977;44.816;20.538;2022-09-03T06:06:28;10.15;;;6.15;;
66175;SDS011;52977;44.816;20.538;2022-09-03T06:08:56;9.48;;;5.40;;
66175;SDS011;52977;44.816;20.538;2022-09-03T06:11:24;7.28;;;4.65;;
66175;SDS011;52977;44.816;20.538;2022-09-03T06:13:55;7.32;;;4.30;;
66175;SDS011;52977;44.816;20.538;2022-09-03T06:16:22;10.55;;;4.72;;
66175;SDS011;52977;44.816;20.538;2022-09-03T06:18:48;12.65;;;5.60;;
66175;SDS011;52977;44.816;20.538;2022-09-03T06:21:14;8.35;;;4.90;;
66175;SDS011;52977;44.816;20.538;2022-09-03T06:23:40;9.90;;;4.75;;
66175;SDS011;52977;44.816;20.538;2022-09-03T06:26:07;13.18;;;6.38;;
66175;SDS011;52977;44.816;20.538;2022-09-03T06:28:36;12.20;;;6.75;;
66175;SDS011;52977;44.816;20.538;2022-09-03T06:31:04;11.07;;;5.93;;
66175;SDS011;52977;44.816;20.538;2022-09-03T06:33:31;11.82;;;6.55;;
66175;SDS011;52977;44.816;20.538;2022-09-03T06:35:59;13.90;;;6.47;;
66175;SDS011;52977;44.816;20.538;2022-09-03T06:38:26;12.27;;;6.55;;
66175;SDS011;52977;44.816;20.538;2022-09-03T06:40:57;9.38;;;6.05;;
66175;SDS011;52977;44.816;20.538;2022-09-03T06:43:31;11.80;;;6.40;;
66175;SDS011;52977;44.816;20.538;2022-09-03T06:46:03;13.35;;;6.35;;
66175;SDS011;52977;44.816;20.538;2022-09-03T06:48:31;12.20;;;6.70;;
66175;SDS011;52977;44.816;20.538;2022-09-03T06:51:02;11.90;;;5.25;;
66175;SDS011;52977;44.816;20.538;2022-09-03T06:53:36;12.23;;;6.45;;
66175;SDS011;52977;44.816;20.538;2022-09-03T06:56:05;9.32;;;5.78;;
66175;SDS011;52977;44.816;20.538;2022-09-03T06:58:33;12.55;;;6.45;;
66175;SDS011;52977;44.816;20.538;2022-09-03T07:01:03;12.27;;;5.90;;
66175;SDS011;52977;44.816;20.538;2022-09-03T07:06:04;12.00;;;6.10;;
66175;SDS011;52977;44.816;20.538;2022-09-03T07:08:34;13.07;;;6.43;;
66175;SDS011;52977;44.816;20.538;2022-09-03T07:11:01;9.98;;;5.65;;
66175;SDS011;52977;44.816;20.538;2022-09-03T07:13:30;7.30;;;4.70;;
66175;SDS011;52977;44.816;20.538;2022-09-03T07:16:04;9.63;;;4.63;;
66175;SDS011;52977;44.816;20.538;2022-09-03T07:18:31;7.80;;;4.10;;
66175;SDS011;52977;44.816;20.538;2022-09-03T07:20:58;8.45;;;4.90;;
66175;SDS011;52977;44.816;20.538;2022-09-03T07:23:25;8.13;;;4.70;;
66175;SDS011;52977;44.816;20.538;2022-09-03T07:25:56;8.13;;;3.45;;
66175;SDS011;52977;44.816;20.538;2022-09-03T07:28:23;9.25;;;4.72;;
66175;SDS011;52977;44.816;20.538;2022-09-03T07:30:50;14.50;;;4.35;;
66175;SDS011;52977;44.816;20.538;2022-09-03T07:33:16;9.82;;;5.13;;
66175;SDS011;52977;44.816;20.538;2022-09-03T07:35:43;8.70;;;4.50;;
66175;SDS011;52977;44.816;20.538;2022-09-03T07:38:09;13.05;;;5.55;;
66175;SDS011;52977;44.816;20.538;2022-09-03T07:40:35;10.00;;;5.35;;
66175;SDS011;52977;44.816;20.538;2022-09-03T07:43:03;12.43;;;5.50;;
66175;SDS011;52977;44.816;20.538;2022-09-03T07:45:30;8.52;;;5.65;;
66175;SDS011;52977;44.816;20.538;2022-09-03T07:47:57;10.20;;;5.40;;
66175;SDS011;52977;44.816;20.538;2022-09-03T07:50:23;7.35;;;4.70;;
66175;SDS011;52977;44.816;20.538;2022-09-03T07:52:54;8.90;;;4.97;;
66175;SDS011;52977;44.816;20.538;2022-09-03T07:55:21;15.25;;;7.90;;
66175;SDS011;52977;44.816;20.538;2022-09-03T07:57:47;8.63;;;4.57;;
66175;SDS011;52977;44.816;20.538;2022-09-03T08:00:13;8.57;;;4.80;;
66175;SDS011;52977;44.816;20.538;2022-09-03T08:02:39;13.57;;;4.43;;
66175;SDS011;52977;44.816;20.538;2022-09-03T08:05:05;6.78;;;4.00;;
66175;SDS011;52977;44.816;20.538;2022-09-03T08:07:31;9.55;;;5.15;;
66175;SDS011;52977;44.816;20.538;2022-09-03T08:09:57;9.05;;;4.18;;
66175;SDS011;52977;44.816;20.538;2022-09-03T08:12:23;8.82;;;4.75;;
66175;SDS011;52977;44.816;20.538;2022-09-03T08:14:49;9.10;;;4.72;;
66175;SDS011;52977;44.816;20.538;2022-09-03T08:17:15;7.10;;;4.72;;
66175;SDS011;52977;44.816;20.538;2022-09-03T08:19:41;9.02;;;4.90;;
66175;SDS011;52977;44.816;20.538;2022-09-03T08:22:07;8.30;;;4.65;;
66175;SDS011;52977;44.816;20.538;2022-09-03T08:24:34;9.32;;;5.28;;
66175;SDS011;52977;44.816;20.538;2022-09-03T08:27:00;9.52;;;5.07;;
66175;SDS011;52977;44.816;20.538;2022-09-03T08:29:26;10.68;;;5.72;;
66175;SDS011;52977;44.816;20.538;2022-09-03T08:31:52;9.20;;;5.53;;
66175;SDS011;52977;44.816;20.538;2022-09-03T08:34:17;12.88;;;5.55;;
66175;SDS011;52977;44.816;20.538;2022-09-03T08:36:44;10.82;;;5.55;;
66175;SDS011;52977;44.816;20.538;2022-09-03T08:39:11;10.95;;;5.30;;
66175;SDS011;52977;44.816;20.538;2022-09-03T08:44:23;9.52;;;5.40;;
66175;SDS011;52977;44.816;20.538;2022-09-03T08:55:13;13.35;;;5.78;;
66175;SDS011;52977;44.816;20.538;2022-09-03T08:57:42;11.20;;;6.10;;
66175;SDS011;52977;44.816;20.538;2022-09-03T09:00:14;15.25;;;9.32;;
66175;SDS011;52977;44.816;20.538;2022-09-03T09:02:49;10.88;;;6.68;;
66175;SDS011;52977;44.816;20.538;2022-09-03T09:08:24;10.27;;;5.38;;
66175;SDS011;52977;44.816;20.538;2022-09-03T09:10:57;10.90;;;5.90;;
66175;SDS011;52977;44.816;20.538;2022-09-03T09:13:41;9.07;;;5.50;;
66175;SDS011;52977;44.816;20.538;2022-09-03T09:16:26;8.35;;;5.10;;
66175;SDS011;52977;44.816;20.538;2022-09-03T09:21:56;9.02;;;5.55;;
66175;SDS011;52977;44.816;20.538;2022-09-03T09:24:26;10.93;;;5.72;;
66175;SDS011;52977;44.816;20.538;2022-09-03T09:27:02;10.00;;;5.65;;
66175;SDS011;52977;44.816;20.538;2022-09-03T09:29:36;12.70;;;5.33;;
66175;SDS011;52977;44.816;20.538;2022-09-03T09:32:03;13.00;;;5.60;;
66175;SDS011;52977;44.816;20.538;2022-09-03T09:34:35;8.90;;;5.30;;
66175;SDS011;52977;44.816;20.538;2022-09-03T09:37:03;12.68;;;5.78;;
66175;SDS011;52977;44.816;20.538;2022-09-03T09:39:32;7.82;;;4.68;;
66175;SDS011;52977;44.816;20.538;2022-09-03T09:44:37;11.18;;;6.20;;
66175;SDS011;52977;44.816;20.538;2022-09-03T09:47:09;10.32;;;6.05;;
66175;SDS011;52977;44.816;20.538;2022-09-03T09:49:42;11.85;;;6.00;;
66175;SDS011;52977;44.816;20.538;2022-09-03T09:52:27;10.02;;;5.85;;
66175;SDS011;52977;44.816;20.538;2022-09-03T09:55:07;11.27;;;5.45;;
66175;SDS011;52977;44.816;20.538;2022-09-03T09:57:40;10.23;;;6.10;;
66175;SDS011;52977;44.816;20.538;2022-09-03T10:00:09;9.88;;;5.90;;
66175;SDS011;52977;44.816;20.538;2022-09-03T10:02:38;8.77;;;5.65;;
66175;SDS011;52977;44.816;20.538;2022-09-03T10:05:19;10.25;;;5.60;;
66175;SDS011;52977;44.816;20.538;2022-09-03T10:07:53;9.45;;;5.70;;
66175;SDS011;52977;44.816;20.538;2022-09-03T10:10:23;8.75;;;5.78;;
66175;SDS011;52977;44.816;20.538;2022-09-03T10:26:42;7.35;;;4.47;;
66175;SDS011;52977;44.816;20.538;2022-09-03T10:29:11;11.55;;;5.60;;
66175;SDS011;52977;44.816;20.538;2022-09-03T10:50:22;7.45;;;4.40;;
66175;SDS011;52977;44.816;20.538;2022-09-03T11:07:22;7.07;;;4.20;;
66175;SDS011;52977;44.816;20.538;2022-09-03T11:10:39;7.88;;;4.65;;
66175;SDS011;52977;44.816;20.538;2022-09-03T11:15:30;6.75;;;4.60;;
66175;SDS011;52977;44.816;20.538;2022-09-03T11:20:51;9.68;;;4.50;;
66175;SDS011;52977;44.816;20.538;2022-09-03T11:23:19;7.45;;;4.10;;
66175;SDS011;52977;44.816;20.538;2022-09-03T11:25:50;8.65;;;4.20;;
66175;SDS011;52977;44.816;20.538;2022-09-03T11:34:14;6.15;;;4.05;;
66175;SDS011;52977;44.816;20.538;2022-09-03T11:37:04;7.13;;;4.85;;
66175;SDS011;52977;44.816;20.538;2022-09-03T11:39:39;7.75;;;4.80;;
66175;SDS011;52977;44.816;20.538;2022-09-03T11:42:09;8.20;;;4.32;;
66175;SDS011;52977;44.816;20.538;2022-09-03T11:44:43;7.13;;;4.70;;
66175;SDS011;52977;44.816;20.538;2022-09-03T11:47:19;8.23;;;4.13;;
66175;SDS011;52977;44.816;20.538;2022-09-03T11:50:15;9.00;;;4.28;;
66175;SDS011;52977;44.816;20.538;2022-09-03T11:52:45;7.28;;;4.05;;
66175;SDS011;52977;44.816;20.538;2022-09-03T11:55:32;6.60;;;4.25;;
66175;SDS011;52977;44.816;20.538;2022-09-03T11:58:28;8.10;;;3.95;;
66175;SDS011;52977;44.816;20.538;2022-09-03T12:01:11;6.55;;;3.95;;
66175;SDS011;52977;44.816;20.538;2022-09-03T12:03:50;9.02;;;5.18;;
66175;SDS011;52977;44.816;20.538;2022-09-03T12:06:33;7.15;;;4.55;;
66175;SDS011;52977;44.816;20.538;2022-09-03T12:14:54;7.85;;;3.92;;
66175;SDS011;52977;44.816;20.538;2022-09-03T12:20:45;10.68;;;4.97;;
66175;SDS011;52977;44.816;20.538;2022-09-03T12:26:17;7.00;;;3.85;;
66175;SDS011;52977;44.816;20.538;2022-09-03T12:28:51;7.15;;;3.83;;
66175;SDS011;52977;44.816;20.538;2022-09-03T12:31:21;5.43;;;3.28;;
66175;SDS011;52977;44.816;20.538;2022-09-03T12:33:58;5.68;;;3.65;;
66175;SDS011;52977;44.816;20.538;2022-09-03T12:36:40;5.90;;;3.28;;
66175;SDS011;52977;44.816;20.538;2022-09-03T12:39:08;5.75;;;3.90;;
66175;SDS011;52977;44.816;20.538;2022-09-03T12:41:35;10.75;;;3.53;;
66175;SDS011;52977;44.816;20.538;2022-09-03T12:44:02;7.32;;;4.22;;
66175;SDS011;52977;44.816;20.538;2022-09-03T12:46:31;7.95;;;3.90;;
66175;SDS011;52977;44.816;20.538;2022-09-03T12:48:58;6.75;;;4.30;;
66175;SDS011;52977;44.816;20.538;2022-09-03T12:51:30;6.93;;;4.15;;
66175;SDS011;52977;44.816;20.538;2022-09-03T12:54:02;10.88;;;4.30;;
66175;SDS011;52977;44.816;20.538;2022-09-03T12:56:32;6.95;;;3.97;;
66175;SDS011;52977;44.816;20.538;2022-09-03T12:59:04;7.85;;;4.45;;
66175;SDS011;52977;44.816;20.538;2022-09-03T13:01:39;7.68;;;4.72;;
66175;SDS011;52977;44.816;20.538;2022-09-03T13:04:13;8.27;;;4.57;;
66175;SDS011;52977;44.816;20.538;2022-09-03T13:06:50;7.20;;;4.38;;
66175;SDS011;52977;44.816;20.538;2022-09-03T13:09:19;7.15;;;4.10;;
66175;SDS011;52977;44.816;20.538;2022-09-03T13:11:50;7.75;;;4.32;;
66175;SDS011;52977;44.816;20.538;2022-09-03T13:14:17;8.70;;;4.65;;
66175;SDS011;52977;44.816;20.538;2022-09-03T13:33:25;8.75;;;4.50;;
66175;SDS011;52977;44.816;20.538;2022-09-03T13:38:34;8.18;;;4.60;;
66175;SDS011;52977;44.816;20.538;2022-09-03T13:50:15;6.97;;;3.92;;
66175;SDS011;52977;44.816;20.538;2022-09-03T13:57:56;7.32;;;3.90;;
66175;SDS011;52977;44.816;20.538;2022-09-03T14:00:26;8.80;;;4.05;;
66175;SDS011;52977;44.816;20.538;2022-09-03T14:08:33;6.32;;;3.78;;
66175;SDS011;52977;44.816;20.538;2022-09-03T14:11:22;6.10;;;4.30;;
66175;SDS011;52977;44.816;20.538;2022-09-03T14:17:01;5.55;;;3.90;;
66175;SDS011;52977;44.816;20.538;2022-09-03T14:20:02;10.85;;;4.63;;
66175;SDS011;52977;44.816;20.538;2022-09-03T14:25:16;11.35;;;5.90;;
66175;SDS011;52977;44.816;20.538;2022-09-03T14:27:44;10.00;;;5.88;;
66175;SDS011;52977;44.816;20.538;2022-09-03T14:41:03;7.10;;;3.72;;
66175;SDS011;52977;44.816;20.538;2022-09-03T14:49:09;7.32;;;4.50;;
66175;SDS011;52977;44.816;20.538;2022-09-03T14:57:22;9.75;;;4.10;;
66175;SDS011;52977;44.816;20.538;2022-09-03T15:00:20;8.75;;;4.15;;
66175;SDS011;52977;44.816;20.538;2022-09-03T15:03:39;7.50;;;4.43;;
66175;SDS011;52977;44.816;20.538;2022-09-03T15:11:17;7.97;;;5.10;;
66175;SDS011;52977;44.816;20.538;2022-09-03T15:14:09;7.32;;;4.50;;
66175;SDS011;52977;44.816;20.538;2022-09-03T15:17:00;10.68;;;5.30;;
66175;SDS011;52977;44.816;20.538;2022-09-03T15:27:49;7.35;;;4.88;;
66175;SDS011;52977;44.816;20.538;2022-09-03T15:32:47;7.85;;;4.32;;
66175;SDS011;52977;44.816;20.538;2022-09-03T15:40:56;6.60;;;4.68;;
66175;SDS011;52977;44.816;20.538;2022-09-03T15:43:28;8.32;;;4.78;;
66175;SDS011;52977;44.816;20.538;2022-09-03T15:45:59;5.93;;;3.97;;
66175;SDS011;52977;44.816;20.538;2022-09-03T15:51:40;6.75;;;4.60;;
66175;SDS011;52977;44.816;20.538;2022-09-03T15:54:22;8.75;;;4.55;;
66175;SDS011;52977;44.816;20.538;2022-09-03T16:00:00;8.27;;;4.80;;
66175;SDS011;52977;44.816;20.538;2022-09-03T16:05:40;7.68;;;4.60;;
66175;SDS011;52977;44.816;20.538;2022-09-03T16:11:21;7.20;;;4.20;;
66175;SDS011;52977;44.816;20.538;2022-09-03T16:16:40;8.88;;;5.18;;
66175;SDS011;52977;44.816;20.538;2022-09-03T16:21:57;8.13;;;4.88;;
66175;SDS011;52977;44.816;20.538;2022-09-03T16:24:27;6.47;;;4.68;;
66175;SDS011;52977;44.816;20.538;2022-09-03T16:29:41;7.57;;;4.83;;
66175;SDS011;52977;44.816;20.538;2022-09-03T16:40:36;13.13;;;7.82;;
66175;SDS011;52977;44.816;20.538;2022-09-03T16:46:27;9.20;;;5.40;;
66175;SDS011;52977;44.816;20.538;2022-09-03T17:27:12;11.95;;;7.38;;
66175;SDS011;52977;44.816;20.538;2022-09-03T17:40:18;12.30;;;7.80;;
66175;SDS011;52977;44.816;20.538;2022-09-03T17:53:55;10.85;;;6.10;;
66175;SDS011;52977;44.816;20.538;2022-09-03T17:59:39;9.98;;;5.85;;
66175;SDS011;52977;44.816;20.538;2022-09-03T18:02:29;11.52;;;6.65;;
66175;SDS011;52977;44.816;20.538;2022-09-03T18:05:21;13.52;;;6.20;;
66175;SDS011;52977;44.816;20.538;2022-09-03T18:13:58;10.80;;;6.65;;
66175;SDS011;52977;44.816;20.538;2022-09-03T18:25:46;11.55;;;6.25;;
66175;SDS011;52977;44.816;20.538;2022-09-03T18:28:36;14.75;;;7.45;;
66175;SDS011;52977;44.816;20.538;2022-09-03T18:31:25;12.73;;;7.00;;
66175;SDS011;52977;44.816;20.538;2022-09-03T18:34:10;14.30;;;7.38;;
66175;SDS011;52977;44.816;20.538;2022-09-03T18:36:58;11.43;;;6.30;;
66175;SDS011;52977;44.816;20.538;2022-09-03T18:39:44;15.80;;;8.75;;
66175;SDS011;52977;44.816;20.538;2022-09-03T18:57:49;12.32;;;7.65;;
66175;SDS011;52977;44.816;20.538;2022-09-03T19:00:49;11.57;;;7.55;;
66175;SDS011;52977;44.816;20.538;2022-09-03T19:10:23;14.18;;;7.13;;
66175;SDS011;52977;44.816;20.538;2022-09-03T19:13:21;11.20;;;6.63;;
66175;SDS011;52977;44.816;20.538;2022-09-03T19:19:10;12.85;;;7.15;;
66175;SDS011;52977;44.816;20.538;2022-09-03T19:22:32;13.60;;;7.43;;
66175;SDS011;52977;44.816;20.538;2022-09-03T19:25:17;12.13;;;6.82;;
66175;SDS011;52977;44.816;20.538;2022-09-03T19:33:46;12.60;;;6.70;;
66175;SDS011;52977;44.816;20.538;2022-09-03T19:36:49;11.77;;;7.22;;
66175;SDS011;52977;44.816;20.538;2022-09-03T19:55:09;7.93;;;5.22;;
66175;SDS011;52977;44.816;20.538;2022-09-03T19:57:59;9.07;;;5.50;;
66175;SDS011;52977;44.816;20.538;2022-09-03T20:00:43;10.05;;;5.65;;
66175;SDS011;52977;44.816;20.538;2022-09-03T20:03:28;9.48;;;5.28;;
66175;SDS011;52977;44.816;20.538;2022-09-03T20:06:13;9.38;;;5.63;;
66175;SDS011;52977;44.816;20.538;2022-09-03T20:08:59;7.93;;;5.50;;
66175;SDS011;52977;44.816;20.538;2022-09-03T20:11:50;8.50;;;5.75;;
66175;SDS011;52977;44.816;20.538;2022-09-03T20:19:20;10.00;;;6.20;;
66175;SDS011;52977;44.816;20.538;2022-09-03T20:30:06;13.32;;;6.03;;
66175;SDS011;52977;44.816;20.538;2022-09-03T20:35:28;8.68;;;5.13;;
66175;SDS011;52977;44.816;20.538;2022-09-03T21:00:56;10.10;;;5.97;;
66175;SDS011;52977;44.816;20.538;2022-09-03T21:14:25;9.35;;;6.53;;
66175;SDS011;52977;44.816;20.538;2022-09-03T21:17:09;10.95;;;6.70;;
66175;SDS011;52977;44.816;20.538;2022-09-03T21:19:45;11.43;;;6.55;;
66175;SDS011;52977;44.816;20.538;2022-09-03T21:25:12;12.85;;;5.95;;
66175;SDS011;52977;44.816;20.538;2022-09-03T21:30:13;10.98;;;5.95;;
66175;SDS011;52977;44.816;20.538;2022-09-03T21:38:23;14.15;;;7.63;;
66175;SDS011;52977;44.816;20.538;2022-09-03T21:43:53;10.73;;;7.40;;
66175;SDS011;52977;44.816;20.538;2022-09-03T21:49:09;12.65;;;7.97;;
66175;SDS011;52977;44.816;20.538;2022-09-03T21:51:42;14.07;;;8.63;;
66175;SDS011;52977;44.816;20.538;2022-09-03T21:59:41;13.25;;;8.27;;
66175;SDS011;52977;44.816;20.538;2022-09-03T22:02:16;12.48;;;7.72;;
66175;SDS011;52977;44.816;20.538;2022-09-03T22:04:45;12.65;;;8.15;;
66175;SDS011;52977;44.816;20.538;2022-09-03T22:07:15;14.15;;;8.63;;
66175;SDS011;52977;44.816;20.538;2022-09-03T22:12:48;14.70;;;9.10;;
66175;SDS011;52977;44.816;20.538;2022-09-03T22:15:22;14.68;;;9.32;;
66175;SDS011;52977;44.816;20.538;2022-09-03T22:20:30;14.25;;;8.88;;
66175;SDS011;52977;44.816;20.538;2022-09-03T22:28:23;22.25;;;10.52;;
66175;SDS011;52977;44.816;20.538;2022-09-03T22:33:38;18.02;;;10.77;;
66175;SDS011;52977;44.816;20.538;2022-09-03T22:41:19;18.15;;;11.38;;
66175;SDS011;52977;44.816;20.538;2022-09-03T22:49:41;18.77;;;11.80;;
66175;SDS011;52977;44.816;20.538;2022-09-03T22:55:20;19.48;;;11.52;;
66175;SDS011;52977;44.816;20.538;2022-09-03T23:00:44;19.80;;;13.13;;
66175;SDS011;52977;44.816;20.538;2022-09-03T23:03:20;18.88;;;12.48;;
66175;SDS011;52977;44.816;20.538;2022-09-03T23:05:53;20.10;;;12.85;;
66175;SDS011;52977;44.816;20.538;2022-09-03T23:08:28;21.05;;;12.93;;